Time;durP1;ratioP1;P1;durP2;ratioP2;P2;SDS_P1;SDS_P2;PMS_P1;PMS_P2;Temp;Humidity;BMP_temperature;BMP_pressure;BME280_temperature;BME280_humidity;BME280_pressure;Samples;Min_cycle;Max_cycle;Signal;HPM_P1;HPM_P2
2022/07/04 00:02:09;;;;;;;;;1.00;1.00;;;;;34.39;21.94;101622.47;4959009;28;45547;-78
2022/07/04 00:04:34;;;;;;;;;0.00;0.00;;;;;34.38;22.09;101637.25;4959403;28;45427;-78
2022/07/04 00:07:00;;;;;;;;;3.00;1.00;;;;;34.35;22.09;101646.59;4959617;28;45404;-78
2022/07/04 00:09:25;;;;;;;;;2.00;0.00;;;;;33.96;22.09;101612.44;4959583;28;45485;-78
2022/07/04 00:11:50;;;;;;;;;1.00;1.00;;;;;34.16;21.87;101638.63;4959063;28;45495;-78
2022/07/04 00:14:16;;;;;;;;;1.00;1.00;;;;;34.03;22.26;101630.31;4959042;28;45473;-78
2022/07/04 00:16:41;;;;;;;;;1.00;1.00;;;;;34.10;22.52;101656.47;4957925;28;45477;-78
2022/07/04 00:19:07;;;;;;;;;1.00;1.00;;;;;34.08;22.37;101650.19;4959186;28;45472;-78
2022/07/04 00:21:32;;;;;;;;;1.00;1.00;;;;;33.99;22.45;101650.78;4957677;28;48216;-78
2022/07/04 00:23:58;;;;;;;;;2.00;1.00;;;;;33.94;22.23;101642.84;4959183;28;45525;-78
2022/07/04 00:26:24;;;;;;;;;1.67;1.00;;;;;33.93;22.25;101648.44;4957839;28;45301;-78
2022/07/04 00:28:49;;;;;;;;;0.67;0.67;;;;;33.78;22.65;101633.81;4959367;28;45402;-78
2022/07/04 00:31:14;;;;;;;;;1.00;1.00;;;;;34.00;22.50;101658.06;4958461;28;45472;-78
2022/07/04 00:33:40;;;;;;;;;1.33;0.67;;;;;34.05;22.33;101655.91;4958041;28;45369;-78
2022/07/04 00:36:05;;;;;;;;;1.33;1.33;;;;;33.98;22.28;101627.88;4958882;28;45390;-78
2022/07/04 00:38:31;;;;;;;;;3.00;2.00;;;;;34.00;22.65;101649.81;4959128;28;45314;-78
2022/07/04 00:40:56;;;;;;;;;2.00;2.00;;;;;34.01;22.58;101646.94;4957702;28;47520;-78
2022/07/04 00:43:24;;;;;;;;;3.67;2.00;;;;;33.95;22.42;101660.22;4958853;28;45387;-78
2022/07/04 00:45:49;;;;;;;;;2.67;2.67;;;;;33.90;22.62;101651.41;4958743;28;45386;-79
2022/07/04 00:48:15;;;;;;;;;2.67;2.00;;;;;33.99;22.55;101659.91;4958558;28;45575;-78
2022/07/04 00:50:42;;;;;;;;;1.67;1.67;;;;;34.01;22.53;101651.59;4958876;28;45715;-78
2022/07/04 00:53:08;;;;;;;;;2.00;2.00;;;;;33.96;22.47;101649.09;4957240;28;45409;-78
2022/07/04 00:55:33;;;;;;;;;2.00;1.33;;;;;34.05;22.60;101650.41;4958966;28;45333;-78
2022/07/04 00:57:59;;;;;;;;;2.00;2.00;;;;;34.09;22.39;101648.31;4958690;28;45322;-78
2022/07/04 01:00:24;;;;;;;;;2.67;2.00;;;;;34.00;22.35;101630.53;4958062;28;46432;-78
2022/07/04 01:02:49;;;;;;;;;3.00;3.00;;;;;34.12;22.68;101654.50;4958064;28;45308;-78
2022/07/04 01:05:15;;;;;;;;;2.00;0.67;;;;;34.03;22.51;101638.59;4957323;28;45492;-78
2022/07/04 01:07:42;;;;;;;;;2.00;2.00;;;;;34.02;22.34;101631.31;4959035;28;45314;-78
2022/07/04 01:10:08;;;;;;;;;2.67;2.00;;;;;34.05;22.76;101641.22;4958387;28;45510;-78
2022/07/04 01:12:34;;;;;;;;;1.00;1.00;;;;;34.06;22.55;101632.00;4958434;28;45346;-78
2022/07/04 01:14:59;;;;;;;;;2.00;2.00;;;;;33.98;22.63;101613.22;4958258;28;45500;-78
2022/07/04 01:17:25;;;;;;;;;3.00;1.33;;;;;34.21;22.24;101646.63;4957131;28;45635;-78
2022/07/04 01:19:50;;;;;;;;;3.00;2.00;;;;;34.24;22.34;101652.78;4958505;28;45468;-78
2022/07/04 01:22:16;;;;;;;;;2.33;2.00;;;;;34.31;22.47;101665.19;4956989;28;45573;-78
2022/07/04 01:24:41;;;;;;;;;1.67;1.67;;;;;34.33;22.33;101657.72;4958476;28;45512;-78
2022/07/04 01:27:07;;;;;;;;;4.00;2.00;;;;;34.19;22.67;101633.81;4957160;28;45457;-78
2022/07/04 01:29:32;;;;;;;;;2.00;2.00;;;;;34.30;22.55;101663.41;4956795;28;47125;-78
2022/07/04 01:32:06;;;;;;;;;2.33;2.33;;;;;34.32;22.60;101653.19;4958236;28;45457;-78
2022/07/04 01:34:32;;;;;;;;;2.00;2.00;;;;;34.17;22.51;101641.28;4956984;28;45398;-78
2022/07/04 01:36:59;;;;;;;;;3.00;3.00;;;;;34.07;22.43;101626.38;4958319;28;45427;-78
2022/07/04 01:39:24;;;;;;;;;3.00;3.00;;;;;34.16;22.56;101655.16;4957676;28;45480;-78
2022/07/04 01:41:49;;;;;;;;;2.00;2.00;;;;;34.21;22.60;101669.53;4958138;28;45302;-78
2022/07/04 01:44:15;;;;;;;;;3.00;3.00;;;;;34.23;22.89;101658.41;4957770;28;45318;-78
2022/07/04 01:46:40;;;;;;;;;3.00;3.00;;;;;34.09;22.67;101632.66;4956691;28;45341;-78
2022/07/04 01:49:05;;;;;;;;;1.67;1.33;;;;;33.98;22.82;101622.38;4957752;28;45417;-77
2022/07/04 01:51:31;;;;;;;;;3.00;3.00;;;;;34.15;22.51;101659.81;4957829;28;45303;-77
2022/07/04 01:53:56;;;;;;;;;4.00;2.67;;;;;33.99;22.59;101643.41;4957810;28;45321;-78
2022/07/04 01:56:21;;;;;;;;;4.00;3.00;;;;;33.76;22.89;101606.41;4956630;28;45607;-78
2022/07/04 01:58:47;;;;;;;;;3.33;3.00;;;;;33.92;22.82;101631.03;4957377;28;46238;-78
2022/07/04 02:01:30;;;;;;;;;3.33;2.00;;;;;33.89;22.80;101630.34;4957522;28;45325;-77
2022/07/04 02:03:58;;;;;;;;;2.00;2.00;;;;;33.83;22.76;101623.41;4956518;28;45362;-78
2022/07/04 02:06:24;;;;;;;;;4.00;3.00;;;;;33.82;22.97;101639.00;4957608;28;45325;-77
2022/07/04 02:14:18;;;;;;;;;2.67;2.67;;;;;33.97;22.62;101644.50;4956044;28;45344;-77
2022/07/04 02:16:43;;;;;;;;;2.67;2.67;;;;;33.93;22.98;101632.81;4957658;28;45333;-78
2022/07/04 02:19:08;;;;;;;;;3.00;3.00;;;;;33.98;23.21;101647.16;4957176;28;46331;-77
2022/07/04 02:21:34;;;;;;;;;2.00;2.00;;;;;34.02;22.81;101643.22;4957420;28;45440;-77
2022/07/04 02:23:59;;;;;;;;;3.00;2.00;;;;;34.07;22.65;101653.91;4957287;28;45429;-78
2022/07/04 02:26:24;;;;;;;;;2.00;2.00;;;;;34.05;23.03;101660.50;4957404;28;45442;-78
2022/07/04 02:28:51;;;;;;;;;2.00;2.00;;;;;34.02;23.26;101653.31;4956912;28;46629;-77
2022/07/04 02:31:17;;;;;;;;;2.67;2.67;;;;;33.90;22.88;101635.75;4957076;28;45483;-79
2022/07/04 02:33:42;;;;;;;;;2.67;2.67;;;;;33.82;23.14;101618.88;4957435;28;45357;-79
2022/07/04 02:36:07;;;;;;;;;2.00;2.00;;;;;33.86;23.22;101639.69;4955999;28;45470;-79
2022/07/04 02:38:33;;;;;;;;;3.00;3.00;;;;;33.90;22.91;101643.16;4957231;28;45520;-79
2022/07/04 02:40:58;;;;;;;;;2.00;2.00;;;;;34.02;22.91;101651.47;4956928;28;45511;-79
2022/07/04 02:43:23;;;;;;;;;3.00;2.00;;;;;34.01;23.07;101657.97;4957162;28;45499;-79
2022/07/04 02:45:48;;;;;;;;;2.00;2.00;;;;;33.89;22.96;101645.00;4957028;28;45355;-78
2022/07/04 02:48:14;;;;;;;;;2.00;2.00;;;;;33.86;23.02;101642.44;4955561;28;49679;-77
2022/07/04 02:50:39;;;;;;;;;4.00;3.00;;;;;33.83;23.18;101653.66;4957051;28;45445;-76
2022/07/04 02:53:04;;;;;;;;;2.00;2.00;;;;;33.81;23.18;101656.53;4955612;28;45342;-76
2022/07/04 02:55:30;;;;;;;;;4.00;2.00;;;;;33.68;23.26;101639.00;4955446;28;45585;-76
2022/07/04 02:57:55;;;;;;;;;2.00;2.00;;;;;33.64;23.40;101663.09;4956992;28;45488;-76
2022/07/04 03:00:20;;;;;;;;;2.00;2.00;;;;;33.64;23.28;101649.34;4957023;28;45416;-76
2022/07/04 03:02:46;;;;;;;;;2.00;2.00;;;;;33.69;23.05;101660.03;4956939;28;45399;-76
2022/07/04 03:05:11;;;;;;;;;2.00;2.00;;;;;33.54;23.26;101642.63;4956906;28;45524;-76
2022/07/04 03:07:36;;;;;;;;;2.33;1.33;;;;;33.66;23.23;101669.38;4956437;28;53339;-76
2022/07/04 03:10:02;;;;;;;;;3.67;2.00;;;;;33.62;23.44;101662.28;4956477;28;45509;-76
2022/07/04 03:12:27;;;;;;;;;3.00;2.00;;;;;33.56;23.26;101661.78;4956560;28;45515;-76
2022/07/04 03:14:53;;;;;;;;;3.00;2.00;;;;;33.44;23.85;101661.59;4955696;28;45608;-76
2022/07/04 03:17:19;;;;;;;;;2.00;1.00;;;;;33.33;23.50;101650.41;4956596;28;46517;-76
2022/07/04 03:19:44;;;;;;;;;4.00;2.33;;;;;33.34;23.77;101668.66;4956580;28;45491;-76
2022/07/04 03:22:10;;;;;;;;;3.00;2.00;;;;;33.25;23.74;101658.22;4956828;28;45502;-76
2022/07/04 03:24:35;;;;;;;;;2.00;2.00;;;;;33.20;23.75;101655.75;4954820;28;45664;-76
2022/07/04 03:27:01;;;;;;;;;1.67;1.67;;;;;33.27;23.53;101675.53;4956260;28;45527;-76
2022/07/04 03:29:26;;;;;;;;;2.00;2.00;;;;;33.12;23.87;101649.84;4956404;28;45328;-76
2022/07/04 03:31:52;;;;;;;;;2.00;2.00;;;;;33.22;23.61;101666.66;4955354;28;45400;-76
2022/07/04 03:34:17;;;;;;;;;3.00;3.00;;;;;33.07;23.88;101654.75;4956526;28;45627;-76
2022/07/04 03:36:43;;;;;;;;;2.00;2.00;;;;;33.18;23.56;101675.09;4956545;28;45474;-76
2022/07/04 03:39:08;;;;;;;;;2.00;2.00;;;;;33.23;23.69;101680.34;4956154;28;45449;-76
2022/07/04 03:41:33;;;;;;;;;3.00;3.00;;;;;33.22;23.48;101666.66;4956556;28;45337;-75
2022/07/04 03:43:59;;;;;;;;;2.00;2.00;;;;;33.26;23.47;101673.75;4956538;28;45364;-76
2022/07/04 03:46:24;;;;;;;;;3.00;2.00;;;;;33.14;23.56;101664.41;4956094;28;45392;-76
2022/07/04 03:48:50;;;;;;;;;3.00;1.00;;;;;33.17;23.51;101658.69;4956381;28;45354;-76
2022/07/04 03:51:15;;;;;;;;;3.00;1.67;;;;;33.28;23.73;101660.81;4956291;28;45381;-76
2022/07/04 03:53:42;;;;;;;;;2.33;2.00;;;;;33.27;23.97;101668.16;4955935;28;45247;-75
2022/07/04 03:56:08;;;;;;;;;1.00;1.00;;;;;33.20;23.50;101649.38;4956077;28;46280;-75
2022/07/04 03:58:33;;;;;;;;;2.00;2.00;;;;;33.18;23.81;101646.72;4956046;28;45422;-76
2022/07/04 04:00:59;;;;;;;;;2.00;2.00;;;;;33.25;23.33;101658.22;4956263;28;45396;-76
2022/07/04 04:06:08;;;;;;;;;3.00;3.00;;;;;33.34;23.49;101660.41;4955996;28;45703;-75
2022/07/04 04:08:34;;;;;;;;;2.00;2.00;;;;;33.44;23.99;101674.47;4955596;28;45385;-76
2022/07/04 04:10:59;;;;;;;;;2.00;2.00;;;;;33.44;23.53;101675.34;4956055;28;45456;-76
2022/07/04 04:13:24;;;;;;;;;3.00;2.33;;;;;33.34;23.82;101650.28;4955763;28;45472;-75
2022/07/04 04:15:50;;;;;;;;;2.00;2.00;;;;;33.30;23.89;101650.59;4954563;28;47155;-76
2022/07/04 04:18:15;;;;;;;;;3.33;3.00;;;;;33.49;23.82;101680.59;4955858;28;45472;-75
2022/07/04 04:20:40;;;;;;;;;2.67;2.67;;;;;33.54;23.99;101685.78;4955884;28;45472;-76
2022/07/04 04:23:06;;;;;;;;;3.00;3.00;;;;;33.53;23.97;101690.41;4955509;28;45460;-76
2022/07/04 04:25:32;;;;;;;;;4.00;3.00;;;;;33.55;23.90;101682.94;4955595;28;45492;-76
2022/07/04 04:27:57;;;;;;;;;2.00;2.00;;;;;33.54;23.85;101674.78;4955649;28;45436;-76
2022/07/04 04:30:23;;;;;;;;;3.00;3.00;;;;;33.63;23.57;101690.69;4955823;28;45414;-76
2022/07/04 04:32:48;;;;;;;;;5.00;3.00;;;;;33.51;23.31;101676.72;4955926;28;45422;-76
2022/07/04 04:35:14;;;;;;;;;4.33;3.00;;;;;33.58;23.60;101690.13;4955553;28;46186;-76
2022/07/04 04:37:39;;;;;;;;;3.00;3.00;;;;;33.57;23.48;101674.56;4956305;28;45386;-76
2022/07/04 04:40:06;;;;;;;;;3.00;3.00;;;;;33.59;23.40;101672.63;4957817;28;45457;-76
2022/07/04 04:42:31;;;;;;;;;3.00;3.00;;;;;33.56;23.55;101657.19;4958994;28;45417;-76
2022/07/04 04:44:57;;;;;;;;;2.00;2.00;;;;;33.67;23.91;101675.75;4958898;28;46161;-76
2022/07/04 04:47:22;;;;;;;;;3.00;3.00;;;;;33.73;23.54;101674.47;4958476;28;45388;-77
2022/07/04 04:49:47;;;;;;;;;3.00;3.00;;;;;33.62;23.68;101656.78;4957669;28;45327;-76
2022/07/04 04:52:13;;;;;;;;;1.00;1.00;;;;;33.73;23.38;101679.97;4958616;28;45373;-76
2022/07/04 04:54:38;;;;;;;;;3.00;3.00;;;;;33.55;23.21;101654.53;4958343;28;46184;-76
2022/07/04 04:57:04;;;;;;;;;2.00;2.00;;;;;33.72;23.08;101683.72;4958786;28;45285;-76
2022/07/04 04:59:30;;;;;;;;;2.00;2.00;;;;;33.76;22.75;101677.94;4958849;28;45396;-76
2022/07/04 05:01:58;;;;;;;;;4.00;3.00;;;;;33.84;23.14;101688.47;4958710;28;45302;-76
2022/07/04 05:04:24;;;;;;;;;3.00;3.00;;;;;33.78;23.07;101686.97;4940950;28;46254;-76
2022/07/04 05:06:51;;;;;;;;;3.00;2.33;;;;;33.50;23.44;101679.56;4944373;28;45617;-69
2022/07/04 05:09:16;;;;;;;;;3.00;2.00;;;;;33.29;23.75;101684.56;4958186;28;45564;-70
2022/07/04 05:11:42;;;;;;;;;3.00;2.00;;;;;33.42;23.42;101692.94;4958200;28;45591;-72
2022/07/04 05:14:07;;;;;;;;;4.00;2.67;;;;;33.28;23.70;101691.06;4955984;28;46130;-69
2022/07/04 05:16:32;;;;;;;;;2.00;2.00;;;;;33.46;23.18;101683.50;4960471;28;45571;-69
2022/07/04 05:18:58;;;;;;;;;2.00;2.00;;;;;33.47;23.41;101675.19;4956740;28;45950;-69
2022/07/04 05:21:26;;;;;;;;;4.00;2.33;;;;;33.57;23.09;101691.09;4955851;28;45731;-69
2022/07/04 05:23:51;;;;;;;;;4.33;3.00;;;;;33.55;23.31;101690.31;4956496;28;46093;-69
2022/07/04 05:26:16;;;;;;;;;3.33;3.00;;;;;33.57;23.48;101696.59;4957207;28;45420;-69
2022/07/04 05:28:42;;;;;;;;;4.00;3.33;;;;;33.52;23.38;101694.13;4957824;28;45838;-70
2022/07/04 05:31:07;;;;;;;;;2.67;2.67;;;;;33.59;23.29;101690.00;4957646;28;53330;-70
2022/07/04 05:33:32;;;;;;;;;2.00;2.00;;;;;33.73;23.22;101700.13;4957756;28;46219;-68
2022/07/04 05:35:57;;;;;;;;;4.00;2.00;;;;;33.73;22.78;101697.38;4957671;28;45512;-67
2022/07/04 05:38:23;;;;;;;;;2.00;1.00;;;;;33.62;23.50;101694.44;4958034;28;45457;-67
2022/07/04 05:40:48;;;;;;;;;2.00;2.00;;;;;33.53;23.53;101684.91;4956605;28;45472;-68
2022/07/04 05:43:14;;;;;;;;;5.00;2.00;;;;;33.58;23.57;101701.13;4957389;28;45372;-68
2022/07/04 05:45:39;;;;;;;;;2.00;2.00;;;;;33.57;23.51;101707.59;4943562;28;45389;-68
2022/07/04 05:48:05;;;;;;;;;2.00;2.00;;;;;33.64;23.81;101701.63;4956664;28;45479;-68
2022/07/04 05:50:30;;;;;;;;;2.00;2.00;;;;;33.78;23.26;101699.88;4957329;28;45517;-69
2022/07/04 05:52:55;;;;;;;;;2.67;2.00;;;;;33.81;23.13;101695.06;4957281;28;46319;-68
2022/07/04 05:55:21;;;;;;;;;2.33;2.33;;;;;33.85;23.32;101702.13;4957342;28;45376;-66
2022/07/04 05:57:46;;;;;;;;;5.00;2.67;;;;;33.76;23.15;101693.59;4954870;28;45417;-69
2022/07/04 06:00:12;;;;;;;;;1.00;1.00;;;;;33.84;23.03;101693.97;4954411;28;45436;-74
2022/07/04 06:02:37;;;;;;;;;1.33;1.33;;;;;33.92;23.01;101701.72;4956517;28;45604;-68
2022/07/04 06:05:03;;;;;;;;;2.00;2.00;;;;;33.92;23.59;101676.94;4956544;28;45298;-67
2022/07/04 06:07:28;;;;;;;;;3.00;3.00;;;;;34.12;23.53;101714.19;4956092;28;45449;-68
2022/07/04 06:09:53;;;;;;;;;2.00;2.00;;;;;34.15;23.29;101709.38;4955129;28;45658;-68
2022/07/04 06:12:19;;;;;;;;;2.67;1.67;;;;;34.07;23.31;101700.72;4955368;28;45672;-68
2022/07/04 06:14:45;;;;;;;;;2.00;2.00;;;;;34.10;23.38;101703.28;4955203;28;45612;-68
2022/07/04 06:17:11;;;;;;;;;2.00;2.00;;;;;34.14;23.53;101710.34;4955581;28;45486;-68
2022/07/04 06:19:37;;;;;;;;;2.33;2.33;;;;;34.30;23.46;101718.50;4954582;28;45388;-68
2022/07/04 06:22:02;;;;;;;;;3.67;1.33;;;;;34.18;23.54;101698.16;4956406;28;45460;-68
2022/07/04 06:24:28;;;;;;;;;1.33;1.00;;;;;34.23;23.31;101710.72;4957202;28;45325;-67
2022/07/04 06:26:53;;;;;;;;;3.00;2.00;;;;;34.28;23.33;101714.06;4957325;28;45422;-67
2022/07/04 06:29:18;;;;;;;;;2.00;2.00;;;;;34.33;23.21;101718.31;4956992;28;45348;-67
2022/07/04 06:31:44;;;;;;;;;2.00;2.00;;;;;34.33;22.98;101711.91;4956514;28;51875;-68
2022/07/04 06:36:53;;;;;;;;;2.00;2.00;;;;;34.38;22.80;101704.22;4957256;28;45330;-67
2022/07/04 06:39:18;;;;;;;;;3.67;2.67;;;;;34.31;22.74;101695.47;4956691;28;47209;-67
2022/07/04 06:41:44;;;;;;;;;2.00;2.00;;;;;34.27;23.21;101704.03;4956807;28;45382;-67
2022/07/04 06:44:09;;;;;;;;;3.00;3.00;;;;;34.38;22.74;101711.63;4957240;28;45330;-68
2022/07/04 06:46:34;;;;;;;;;1.67;1.67;;;;;34.43;23.05;101717.69;4967115;28;47416;-68
2022/07/04 06:49:00;;;;;;;;;2.00;2.00;;;;;34.38;22.13;101704.22;4975051;28;45253;-67
2022/07/04 06:51:25;;;;;;;;;2.00;2.00;;;;;34.44;22.47;101705.69;4976157;28;46530;-67
2022/07/04 06:53:51;;;;;;;;;3.00;2.00;;;;;34.45;22.38;101711.09;4972998;28;45490;-67
2022/07/04 06:56:17;;;;;;;;;2.00;2.00;;;;;34.56;22.25;101718.66;4950618;28;45648;-67
2022/07/04 06:58:42;;;;;;;;;2.00;2.00;;;;;34.50;22.73;101719.03;4954781;28;45508;-67
2022/07/04 07:01:08;;;;;;;;;3.00;2.00;;;;;34.38;22.50;101701.47;4955016;28;45513;-83
2022/07/04 07:03:33;;;;;;;;;1.67;1.00;;;;;34.55;22.59;101704.97;4952675;28;45489;-84
2022/07/04 07:05:59;;;;;;;;;1.67;1.67;;;;;34.49;21.87;101698.00;4955629;28;45381;-85
2022/07/04 07:08:24;;;;;;;;;3.67;2.00;;;;;34.50;22.66;101708.91;4955238;28;45320;-86
2022/07/04 07:10:50;;;;;;;;;2.00;2.00;;;;;34.60;22.38;101730.31;4946128;28;45595;-86
2022/07/04 07:13:15;;;;;;;;;2.00;2.00;;;;;34.51;22.22;101716.19;4942780;28;45476;-86
2022/07/04 07:15:41;;;;;;;;;2.33;2.00;;;;;34.60;22.81;101731.22;4954635;28;45501;-86
2022/07/04 07:18:06;;;;;;;;;0.67;0.67;;;;;34.56;22.16;101728.75;4945199;28;45368;-86
2022/07/04 07:20:32;;;;;;;;;1.67;1.67;;;;;34.55;22.13;101727.88;4941159;28;46184;-85
2022/07/04 07:22:58;;;;;;;;;3.33;2.00;;;;;34.57;22.26;101714.00;4944941;28;45734;-86
2022/07/04 07:25:23;;;;;;;;;2.00;2.00;;;;;34.41;22.26;101687.50;4954354;28;45388;-87
2022/07/04 07:27:48;;;;;;;;;2.00;2.00;;;;;34.45;21.96;101682.66;4955578;28;45653;-85
2022/07/04 07:30:14;;;;;;;;;1.67;1.00;;;;;34.63;21.73;101705.34;4956075;28;46411;-86
2022/07/04 07:32:39;;;;;;;;;1.67;1.67;;;;;34.69;21.65;101721.44;4955028;28;45365;-86
2022/07/04 07:35:05;;;;;;;;;2.00;2.00;;;;;34.53;21.69;101728.00;4955288;28;45440;-84
2022/07/04 07:37:31;;;;;;;;;1.67;1.67;;;;;34.41;21.70;101725.19;4955416;28;45508;-86
2022/07/04 07:39:56;;;;;;;;;3.00;3.00;;;;;34.45;21.92;101722.13;4953541;28;45858;-86
2022/07/04 07:42:24;;;;;;;;;2.00;2.00;;;;;34.39;21.89;101706.00;4955637;28;46453;-84
2022/07/04 07:44:49;;;;;;;;;1.00;1.00;;;;;34.61;22.19;101713.69;4953982;28;45446;-82
2022/07/04 07:47:15;;;;;;;;;2.00;2.00;;;;;34.60;21.51;101713.78;4953713;28;45977;-84
2022/07/04 07:49:41;;;;;;;;;2.00;2.00;;;;;34.57;21.73;101698.38;4952255;28;45527;-82
2022/07/04 07:52:06;;;;;;;;;2.00;2.00;;;;;34.66;21.56;101703.25;4953438;28;45346;-82
2022/07/04 07:54:32;;;;;;;;;2.00;2.00;;;;;34.79;21.57;101703.28;4952780;28;45430;-81
2022/07/04 07:56:57;;;;;;;;;2.00;2.00;;;;;34.96;21.61;101715.06;4948250;28;45427;-79
2022/07/04 07:59:22;;;;;;;;;1.33;1.33;;;;;34.85;21.47;101708.41;4950501;28;49194;-82
2022/07/04 08:01:48;;;;;;;;;2.00;2.00;;;;;34.36;21.67;101618.94;4948956;28;45443;-80
2022/07/04 08:06:57;;;;;;;;;3.00;1.00;;;;;34.56;21.20;101630.47;4950456;28;45523;-79
2022/07/04 08:09:22;;;;;;;;;1.67;1.67;;;;;34.41;21.19;101602.09;4950000;28;45578;-79
2022/07/04 08:11:48;;;;;;;;;1.00;1.00;;;;;34.96;21.15;101693.88;4950205;28;45499;-78
2022/07/04 08:14:13;;;;;;;;;1.00;1.00;;;;;34.77;20.50;101663.91;4951322;28;45547;-79
2022/07/04 08:16:40;;;;;;;;;1.00;1.00;;;;;35.10;20.67;101716.84;4951819;28;45564;-79
2022/07/04 08:19:06;;;;;;;;;1.67;1.67;;;;;34.52;20.45;101638.03;4951824;28;46614;-78
2022/07/04 08:21:31;;;;;;;;;2.33;2.00;;;;;34.78;20.75;101682.25;4953526;28;45420;-79
2022/07/04 08:23:56;;;;;;;;;2.67;2.67;;;;;34.53;20.62;101650.84;4952956;28;45531;-78
2022/07/04 08:26:22;;;;;;;;;2.00;2.00;;;;;34.45;20.77;101636.69;4955855;28;45389;-77
2022/07/04 08:28:47;;;;;;;;;3.00;1.00;;;;;34.67;20.42;101649.00;4970755;28;47151;-77
2022/07/04 08:31:13;;;;;;;;;1.33;1.33;;;;;35.00;20.63;101716.59;4954699;28;45596;-78
2022/07/04 08:33:38;;;;;;;;;2.00;2.00;;;;;34.90;20.39;101682.41;4954361;28;45859;-78
2022/07/04 08:36:04;;;;;;;;;2.00;1.00;;;;;35.11;19.48;101714.00;4954268;28;45511;-79
2022/07/04 08:38:30;;;;;;;;;2.00;2.00;;;;;35.06;19.91;101696.88;4953946;28;45673;-76
2022/07/04 08:40:58;;;;;;;;;1.00;1.00;;;;;34.80;20.12;101693.19;4954046;28;45595;-76
2022/07/04 08:43:25;;;;;;;;;2.00;2.00;;;;;34.82;19.66;101694.81;4951026;28;45554;-77
2022/07/04 08:45:53;;;;;;;;;4.67;2.00;;;;;34.99;20.03;101699.19;4956899;28;45586;-77
2022/07/04 08:48:24;;;;;;;;;1.00;1.00;;;;;35.15;20.13;101689.84;4957306;28;46278;-77
2022/07/04 08:50:54;;;;;;;;;2.00;2.00;;;;;35.31;20.30;101693.28;4954322;28;45551;-76
2022/07/04 08:53:20;;;;;;;;;1.67;1.67;;;;;35.33;20.05;101672.00;4954228;28;45475;-75
2022/07/04 08:58:33;;;;;;;;;3.00;2.00;;;;;35.49;18.88;101677.28;4954168;28;45524;-75
2022/07/04 09:01:25;;;;;;;;;8.67;4.00;;;;;35.52;19.69;101684.47;4954233;28;46530;-66
2022/07/04 09:03:50;;;;;;;;;8.00;5.33;;;;;35.61;19.31;101675.50;4953108;28;45585;-68
2022/07/04 09:06:16;;;;;;;;;2.00;2.00;;;;;35.67;19.50;101688.88;4954250;28;46301;-68
2022/07/04 09:08:41;;;;;;;;;1.00;1.00;;;;;35.43;18.54;101669.47;4954827;28;45660;-69
2022/07/04 09:11:07;;;;;;;;;2.00;2.00;;;;;35.57;19.16;101682.28;4953616;28;46562;-69
2022/07/04 09:13:33;;;;;;;;;3.00;1.00;;;;;35.42;18.37;101677.88;4952601;28;46002;-68
2022/07/04 09:16:00;;;;;;;;;1.00;0.00;;;;;35.18;18.75;101673.06;4951159;28;45587;-68
2022/07/04 09:18:31;;;;;;;;;0.00;0.00;;;;;34.97;19.07;101669.97;4952335;28;45648;-68
2022/07/04 09:20:59;;;;;;;;;1.00;1.00;;;;;35.19;18.80;101672.97;4953451;28;45534;-68
2022/07/04 09:23:43;;;;;;;;;1.00;1.00;;;;;35.22;18.85;101675.50;4953440;28;45469;-68
2022/07/04 09:26:14;;;;;;;;;2.00;1.00;;;;;35.15;18.54;101667.78;4950480;28;45596;-70
2022/07/04 09:28:52;;;;;;;;;1.00;1.00;;;;;35.35;18.44;101663.63;4952593;28;46339;-70
2022/07/04 09:31:19;;;;;;;;;6.00;3.67;;;;;35.45;18.46;101661.09;4953699;28;45570;-70
2022/07/04 09:33:49;;;;;;;;;3.00;1.67;;;;;35.67;19.12;101661.28;4953788;28;45496;-71
2022/07/04 09:36:17;;;;;;;;;2.67;2.00;;;;;35.87;19.18;101670.88;4952273;28;45486;-70
2022/07/04 09:38:43;;;;;;;;;2.67;2.67;;;;;35.80;18.95;101658.50;4953238;28;47786;-71
2022/07/04 09:44:06;;;;;;;;;3.00;1.67;;;;;35.88;19.00;101663.50;4953233;28;45519;-69
2022/07/04 09:46:33;;;;;;;;;3.33;2.00;;;;;36.02;18.99;101654.16;4951939;28;45740;-70
2022/07/04 09:48:59;;;;;;;;;2.00;2.00;;;;;36.00;19.47;101643.22;4952833;28;45694;-69
2022/07/04 09:52:03;;;;;;;;;1.00;1.00;;;;;35.78;18.91;101663.25;4953080;28;45503;-68
2022/07/04 09:54:32;;;;;;;;;2.33;2.33;;;;;35.61;18.99;101664.47;4949863;28;45619;-68
2022/07/04 09:56:59;;;;;;;;;8.00;7.67;;;;;35.92;19.19;101659.47;4952400;28;45557;-68
2022/07/04 09:59:27;;;;;;;;;4.00;3.00;;;;;35.93;18.51;101661.25;4951055;28;46523;-68
2022/07/04 10:02:05;;;;;;;;;3.00;3.00;;;;;35.91;18.82;101656.84;4952971;28;45382;-68
2022/07/04 10:04:51;;;;;;;;;2.00;2.00;;;;;35.64;18.41;101655.09;4952473;28;45698;-68
2022/07/04 10:07:36;;;;;;;;;4.00;2.67;;;;;35.62;17.67;101662.59;4951910;28;45866;-68
2022/07/04 10:10:25;;;;;;;;;2.00;2.00;;;;;35.86;17.44;101669.09;4948703;28;46343;-68
2022/07/04 10:12:52;;;;;;;;;0.67;0.33;;;;;36.05;18.27;101660.34;4946851;28;45819;-68
2022/07/04 10:15:18;;;;;;;;;2.00;2.00;;;;;36.26;17.88;101658.81;4952828;28;46369;-71
2022/07/04 10:17:44;;;;;;;;;1.00;1.00;;;;;36.16;17.98;101644.81;4952665;28;45606;-69
2022/07/04 10:20:11;;;;;;;;;4.00;3.00;;;;;36.18;17.94;101651.13;4950763;28;45633;-69
2022/07/04 10:22:37;;;;;;;;;4.67;2.00;;;;;35.95;18.02;101639.03;4950158;28;45634;-68
2022/07/04 10:25:03;;;;;;;;;2.00;2.00;;;;;36.06;18.10;101645.53;4952133;28;45810;-71
2022/07/04 10:27:30;;;;;;;;;2.67;2.67;;;;;36.29;18.39;101639.25;4954680;28;45801;-69
2022/07/04 10:29:58;;;;;;;;;3.00;3.00;;;;;36.43;17.98;101654.78;4951132;28;46717;-70
2022/07/04 10:32:26;;;;;;;;;3.00;2.00;;;;;36.01;18.45;101646.88;4952226;28;45534;-70
2022/07/04 10:34:51;;;;;;;;;5.00;3.00;;;;;35.95;18.43;101655.59;4951112;28;45627;-71
2022/07/04 10:37:17;;;;;;;;;2.00;2.00;;;;;36.09;18.26;101649.06;4952931;28;45396;-72
2022/07/04 10:39:43;;;;;;;;;4.00;3.00;;;;;36.18;17.98;101653.91;4951565;28;45414;-70
2022/07/04 10:42:21;;;;;;;;;2.00;2.00;;;;;36.01;17.96;101647.75;4951185;28;45516;-69
2022/07/04 10:44:49;;;;;;;;;3.00;3.00;;;;;36.14;18.03;101653.22;4949709;28;45385;-69
2022/07/04 10:47:23;;;;;;;;;2.00;2.00;;;;;36.22;18.23;101639.72;4952387;28;45826;-70
2022/07/04 10:49:50;;;;;;;;;2.67;2.67;;;;;36.26;17.54;101633.94;4950639;28;47573;-70
2022/07/04 10:52:16;;;;;;;;;4.00;2.00;;;;;36.38;17.55;101644.09;4952196;28;46407;-68
2022/07/04 10:54:43;;;;;;;;;0.67;0.67;;;;;36.40;16.92;101639.38;4950047;28;45464;-69
2022/07/04 10:57:20;;;;;;;;;3.00;3.00;;;;;36.65;17.60;101643.84;4952254;28;45428;-70
2022/07/04 10:59:57;;;;;;;;;4.00;3.33;;;;;36.83;17.30;101648.97;4952290;28;45708;-70
2022/07/04 11:02:33;;;;;;;;;2.00;2.00;;;;;36.93;17.92;101640.84;4951321;28;45423;-70
2022/07/04 11:05:00;;;;;;;;;1.00;1.00;;;;;36.96;17.46;101643.34;4945867;28;45654;-70
2022/07/04 11:07:35;;;;;;;;;2.00;2.00;;;;;36.79;17.41;101636.41;4950185;28;45601;-69
2022/07/04 11:13:02;;;;;;;;;2.00;2.00;;;;;36.93;17.04;101638.06;4950622;28;45479;-69
2022/07/04 11:15:27;;;;;;;;;1.67;1.67;;;;;36.84;17.25;101635.03;4950979;28;45458;-69
2022/07/04 11:17:55;;;;;;;;;2.00;2.00;;;;;36.94;16.97;101626.88;4950240;28;45715;-69
2022/07/04 11:20:22;;;;;;;;;4.00;2.00;;;;;37.15;17.30;101635.34;4949689;28;46539;-68
2022/07/04 11:22:47;;;;;;;;;3.33;2.33;;;;;37.08;16.57;101631.31;4952061;28;45514;-68
2022/07/04 11:25:13;;;;;;;;;2.00;2.00;;;;;36.78;16.67;101618.91;4952427;28;45474;-68
2022/07/04 11:27:39;;;;;;;;;3.00;3.00;;;;;36.65;17.34;101623.63;4967807;28;45615;-68
2022/07/04 11:30:06;;;;;;;;;2.00;2.00;;;;;36.88;17.47;101642.09;4951808;28;45527;-68
2022/07/04 11:32:33;;;;;;;;;2.00;2.00;;;;;36.95;16.73;101636.06;4951116;28;45493;-68
2022/07/04 11:34:58;;;;;;;;;1.00;1.00;;;;;36.85;16.99;101619.31;4951298;28;46521;-68
2022/07/04 11:37:24;;;;;;;;;2.33;2.00;;;;;36.77;16.77;101621.78;4951795;28;45742;-68
2022/07/04 11:45:02;;;;;;;;;2.00;2.00;;;;;36.85;16.82;101625.75;4950811;28;46386;-68
2022/07/04 11:45:22;;;;;;;;;3.00;2.00;;;;;37.24;16.62;101617.13;4950739;28;45926;-69
2022/07/04 11:47:49;;;;;;;;;1.00;1.00;;;;;37.15;16.83;101627.06;4954425;28;45623;-69